Time;durP1;ratioP1;P1;durP2;ratioP2;P2;SDS_P1;SDS_P2;PMS_P1;PMS_P2;Temp;Humidity;BMP_temperature;BMP_pressure;BME280_temperature;BME280_humidity;BME280_pressure;Samples;Min_cycle;Max_cycle;Signal;HPM_P1;HPM_P2
2023/06/18 00:02:02;;;;;;;7.90;6.20;;;;;;;19.41;52.68;101587.84;6143470;23;20383;-76
2023/06/18 00:04:30;;;;;;;6.47;5.53;;;;;;;19.34;52.93;101586.38;6147155;23;20477;-75
2023/06/18 00:06:57;;;;;;;9.63;6.22;;;;;;;19.33;53.14;101585.50;6142795;23;20058;-74
2023/06/18 00:09:24;;;;;;;8.85;5.72;;;;;;;19.31;53.26;101571.47;6146039;23;20037;-75
2023/06/18 00:11:53;;;;;;;8.82;5.22;;;;;;;19.30;53.67;101564.44;6146365;23;20021;-75
2023/06/18 00:14:20;;;;;;;6.95;6.15;;;;;;;19.27;53.54;101558.44;6147612;23;20032;-75
2023/06/18 00:16:46;;;;;;;9.50;5.53;;;;;;;19.25;53.76;101557.63;6144983;23;20382;-75
2023/06/18 00:19:14;;;;;;;10.48;5.63;;;;;;;19.24;53.76;101554.13;6146958;23;20029;-74
2023/06/18 00:21:41;;;;;;;6.30;5.43;;;;;;;19.22;53.90;101552.47;6147796;23;20493;-75
2023/06/18 00:24:08;;;;;;;10.52;5.40;;;;;;;19.19;54.06;101557.88;6148420;23;20033;-75
2023/06/18 00:26:34;;;;;;;4.88;4.30;;;;;;;19.17;54.10;101562.38;6148947;23;20028;-79
2023/06/18 00:29:03;;;;;;;6.95;4.43;;;;;;;19.09;54.40;101558.25;6146384;23;20025;-74
2023/06/18 00:31:32;;;;;;;5.53;4.60;;;;;;;19.12;54.39;101590.84;6147658;23;20032;-75
2023/06/18 00:34:04;;;;;;;6.97;4.15;;;;;;;19.09;54.43;101605.06;6147915;23;20139;-74
2023/06/18 00:36:31;;;;;;;6.65;4.45;;;;;;;19.08;54.58;101600.69;6148426;23;20382;-75
2023/06/18 00:38:58;;;;;;;6.28;4.97;;;;;;;19.06;54.91;101592.81;6147020;23;20022;-75
2023/06/18 00:41:27;;;;;;;10.55;4.47;;;;;;;19.06;54.92;101587.50;6148204;23;20045;-75
2023/06/18 00:43:57;;;;;;;6.50;4.28;;;;;;;19.07;55.19;101597.19;6145951;23;20026;-75
2023/06/18 00:46:26;;;;;;;8.23;5.25;;;;;;;19.04;55.08;101593.78;6148200;23;20045;-74
2023/06/18 00:48:53;;;;;;;6.80;4.43;;;;;;;19.03;55.47;101592.06;6144725;23;20104;-74
2023/06/18 00:51:22;;;;;;;6.97;4.45;;;;;;;19.01;55.67;101588.63;6142032;23;20029;-75
2023/06/18 00:53:50;;;;;;;6.18;4.40;;;;;;;19.01;55.42;101586.84;6143580;23;20092;-76
2023/06/18 00:56:17;;;;;;;5.85;4.18;;;;;;;19.00;55.57;101592.19;6144705;23;20099;-75
2023/06/18 00:58:47;;;;;;;4.80;3.92;;;;;;;18.99;55.70;101591.34;6145944;23;20025;-75
2023/06/18 01:01:14;;;;;;;7.40;3.80;;;;;;;18.96;55.84;101591.47;6145348;23;20319;-75
2023/06/18 01:03:47;;;;;;;6.78;4.32;;;;;;;18.94;56.05;101588.00;6145415;23;20033;-75
2023/06/18 01:06:17;;;;;;;5.88;4.30;;;;;;;18.94;56.00;101584.50;6148199;23;20053;-74
2023/06/18 01:08:48;;;;;;;7.63;4.18;;;;;;;18.89;55.95;101574.09;6146651;23;20044;-74
2023/06/18 01:11:19;;;;;;;8.30;6.03;;;;;;;18.91;56.24;101576.69;6140747;23;20022;-75
2023/06/18 01:13:46;;;;;;;5.78;4.05;;;;;;;18.88;56.28;101578.53;6147662;23;20065;-75
2023/06/18 01:16:14;;;;;;;6.65;4.43;;;;;;;18.85;56.33;101589.25;6148973;23;20140;-75
2023/06/18 01:18:45;;;;;;;5.60;4.32;;;;;;;18.83;56.28;101580.50;6147322;23;20032;-75
2023/06/18 01:21:15;;;;;;;7.47;4.68;;;;;;;18.81;56.29;101578.84;6147815;23;20032;-75
2023/06/18 01:23:54;;;;;;;6.90;4.45;;;;;;;18.83;56.43;101590.22;6146831;23;20021;-74
2023/06/18 01:26:23;;;;;;;6.55;4.20;;;;;;;18.82;56.56;101593.81;6146739;23;20108;-75
2023/06/18 01:28:51;;;;;;;8.07;5.05;;;;;;;18.81;56.60;101592.06;6145759;23;20029;-75
2023/06/18 01:31:21;;;;;;;7.55;4.32;;;;;;;18.80;56.37;101595.66;6147477;23;20533;-75
2023/06/18 01:33:53;;;;;;;9.00;5.03;;;;;;;18.81;56.68;101602.66;6149336;23;20112;-75
2023/06/18 01:36:30;;;;;;;8.55;4.68;;;;;;;18.79;56.43;101594.78;6146567;23;20097;-75
2023/06/18 01:39:05;;;;;;;10.00;4.38;;;;;;;18.79;56.73;101593.94;6145742;23;20394;-74
2023/06/18 01:41:36;;;;;;;;;;;;;;;18.79;55.60;101594.78;6150421;23;20059;-75
2023/06/18 01:44:09;;;;;;;5.60;4.10;;;;;;;18.76;56.18;101586.97;6146959;23;19927;-75
2023/06/18 01:46:38;;;;;;;9.68;4.38;;;;;;;18.73;56.58;101586.22;6148565;23;20458;-74
2023/06/18 01:49:09;;;;;;;6.03;4.40;;;;;;;18.75;56.70;101592.31;6149774;23;20088;-75
2023/06/18 01:51:38;;;;;;;5.65;4.22;;;;;;;18.74;56.92;101591.47;6146324;23;20029;-75
2023/06/18 01:54:06;;;;;;;5.47;4.15;;;;;;;18.73;57.26;101594.16;6143362;23;20057;-75
2023/06/18 01:56:34;;;;;;;5.70;5.10;;;;;;;18.71;57.11;101590.69;6145328;23;20033;-74
2023/06/18 01:59:02;;;;;;;7.97;4.65;;;;;;;18.70;57.29;101587.19;6148384;23;20022;-75
2023/06/18 02:01:30;;;;;;;7.68;4.18;;;;;;;18.67;57.50;101584.66;6145042;23;20128;-75
2023/06/18 02:03:57;;;;;;;10.27;5.20;;;;;;;18.68;57.74;101586.38;6147018;23;20028;-74
2023/06/18 02:06:26;;;;;;;6.30;4.63;;;;;;;18.68;57.61;101588.16;6147813;23;20049;-74
2023/06/18 02:08:53;;;;;;;10.52;4.38;;;;;;;18.66;57.70;101583.78;6148123;23;20029;-75
2023/06/18 02:11:19;;;;;;;5.93;4.57;;;;;;;18.63;58.00;101575.97;6145928;23;20021;-74
2023/06/18 02:13:46;;;;;;;6.88;4.28;;;;;;;18.64;58.14;101585.66;6147090;23;20021;-75
2023/06/18 02:16:13;;;;;;;6.78;4.25;;;;;;;18.62;57.89;101583.97;6147924;23;20025;-75
2023/06/18 02:18:40;;;;;;;8.25;4.88;;;;;;;18.60;58.09;101584.03;6150612;23;20022;-74
2023/06/18 02:21:07;;;;;;;7.53;4.85;;;;;;;18.59;58.19;101587.59;6148972;23;20025;-75
2023/06/18 02:23:36;;;;;;;8.05;5.22;;;;;;;18.59;58.26;101582.31;6151263;23;20029;-74
2023/06/18 02:26:03;;;;;;;7.35;4.80;;;;;;;18.56;58.14;101585.09;6146749;23;20022;-74
2023/06/18 02:28:30;;;;;;;7.57;4.97;;;;;;;18.58;58.47;101582.34;6150636;23;20025;-75
2023/06/18 02:30:57;;;;;;;6.32;4.20;;;;;;;18.58;58.35;101590.28;6149597;23;20045;-75
2023/06/18 02:33:25;;;;;;;7.50;4.15;;;;;;;18.58;58.41;101585.88;6147904;23;20454;-74
2023/06/18 02:35:52;;;;;;;8.23;4.72;;;;;;;18.57;58.58;101592.09;6151582;23;20112;-74
2023/06/18 02:38:18;;;;;;;5.90;4.53;;;;;;;18.56;58.52;101585.09;6150531;23;20029;-75
2023/06/18 02:40:47;;;;;;;6.70;4.93;;;;;;;18.57;58.79;101592.09;6148727;23;20026;-74
2023/06/18 02:43:13;;;;;;;9.50;5.43;;;;;;;18.57;58.85;101589.44;6151173;23;20362;-74
2023/06/18 02:45:40;;;;;;;7.32;4.72;;;;;;;18.57;58.87;101594.72;6145380;23;20025;-75
2023/06/18 02:48:07;;;;;;;6.63;4.53;;;;;;;18.56;58.62;101587.72;6147760;23;20036;-70
2023/06/18 02:50:34;;;;;;;8.60;4.88;;;;;;;18.57;58.81;101592.09;6149422;23;20036;-70
2023/06/18 02:53:01;;;;;;;6.28;4.45;;;;;;;18.56;58.94;101590.38;6149230;23;20481;-70
2023/06/18 02:55:31;;;;;;;7.80;5.20;;;;;;;18.56;59.14;101581.56;6148173;23;20040;-70
2023/06/18 02:57:59;;;;;;;7.30;5.30;;;;;;;18.55;59.26;101591.28;6147823;23;20474;-70
2023/06/18 03:00:26;;;;;;;5.93;5.05;;;;;;;18.55;59.07;101593.91;6147783;23;20091;-70
2023/06/18 03:02:53;;;;;;;6.65;4.80;;;;;;;18.55;59.50;101596.56;6147855;23;20042;-70
2023/06/18 03:05:20;;;;;;;6.72;5.65;;;;;;;18.56;59.34;101593.03;6148130;23;20029;-72
2023/06/18 03:07:47;;;;;;;17.95;7.07;;;;;;;18.56;59.84;101586.88;6148938;23;20017;-70
2023/06/18 03:10:13;;;;;;;10.30;5.88;;;;;;;18.57;59.67;101593.88;6149821;23;20021;-70
2023/06/18 03:12:40;;;;;;;7.03;5.18;;;;;;;18.57;59.93;101589.44;6148126;23;20032;-70
2023/06/18 03:15:09;;;;;;;8.32;5.20;;;;;;;18.57;59.94;101589.44;6149526;23;20025;-70
2023/06/18 03:17:36;;;;;;;7.10;4.90;;;;;;;18.57;59.67;101589.44;6149242;23;20351;-70
2023/06/18 03:20:06;;;;;;;7.60;5.07;;;;;;;18.59;59.60;101584.97;6150087;23;20017;-70
2023/06/18 03:22:33;;;;;;;11.38;6.28;;;;;;;18.60;59.68;101588.47;6148901;23;20029;-70
2023/06/18 03:25:01;;;;;;;10.93;5.32;;;;;;;18.59;59.55;101587.59;6148544;23;20072;-70
2023/06/18 03:27:28;;;;;;;11.35;5.03;;;;;;;18.61;59.58;101591.06;6148178;23;20025;-70
2023/06/18 03:29:55;;;;;;;5.93;4.78;;;;;;;18.61;59.72;101580.47;6150170;23;20060;-70
2023/06/18 03:32:24;;;;;;;7.07;5.57;;;;;;;18.62;59.80;101581.34;6145982;23;20021;-70
2023/06/18 03:34:52;;;;;;;6.78;5.35;;;;;;;18.62;59.48;101582.19;6150258;23;20446;-70
2023/06/18 03:37:18;;;;;;;10.55;6.10;;;;;;;18.63;59.72;101583.03;6147983;23;20031;-70
2023/06/18 03:39:45;;;;;;;8.18;5.78;;;;;;;18.63;59.18;101586.56;6150114;23;20044;-70
2023/06/18 03:42:12;;;;;;;10.90;5.68;;;;;;;18.65;59.32;101583.84;6147118;23;20060;-70
2023/06/18 03:44:39;;;;;;;6.80;5.22;;;;;;;18.65;59.53;101578.56;6149800;23;20026;-70
2023/06/18 03:47:06;;;;;;;7.55;5.75;;;;;;;18.65;59.96;101571.47;6147042;23;20022;-70
2023/06/18 03:49:35;;;;;;;6.45;5.35;;;;;;;18.69;59.84;101576.66;6148125;23;20033;-70
2023/06/18 03:52:02;;;;;;;8.13;5.85;;;;;;;18.70;60.01;101570.44;6146493;23;20025;-70
2023/06/18 03:54:28;;;;;;;7.20;5.57;;;;;;;18.71;60.12;101577.47;6150054;23;20018;-70
2023/06/18 03:56:55;;;;;;;11.43;6.03;;;;;;;18.72;60.05;101579.16;6147537;23;20032;-70
2023/06/18 03:59:22;;;;;;;8.85;6.40;;;;;;;18.73;59.85;101573.84;6150176;23;20028;-71
2023/06/18 04:01:49;;;;;;;10.10;6.75;;;;;;;18.74;59.83;101565.00;6148891;23;20032;-70
2023/06/18 04:04:15;;;;;;;9.05;5.88;;;;;;;18.74;60.25;101572.06;6150066;23;20026;-70
2023/06/18 04:06:44;;;;;;;9.65;6.40;;;;;;;18.75;59.90;101565.84;6147576;23;20028;-70
2023/06/18 04:09:11;;;;;;;8.80;6.35;;;;;;;18.74;59.94;101567.63;6148132;23;20044;-70
2023/06/18 04:11:38;;;;;;;8.73;6.20;;;;;;;18.75;60.16;101565.84;6146010;23;20480;-71
2023/06/18 04:14:06;;;;;;;7.00;5.80;;;;;;;18.75;59.84;101566.69;6150764;23;20021;-71
2023/06/18 04:16:33;;;;;;;8.15;7.30;;;;;;;18.77;60.00;101550.78;6148953;23;20025;-70
2023/06/18 04:19:00;;;;;;;10.98;7.13;;;;;;;18.78;59.85;101573.66;6148838;23;20033;-70
2023/06/18 04:21:27;;;;;;;8.32;5.53;;;;;;;18.78;59.87;101576.31;6147557;23;20351;-70
2023/06/18 04:23:56;;;;;;;10.82;6.72;;;;;;;18.80;59.42;101574.47;6147017;23;20032;-70
2023/06/18 04:26:23;;;;;;;13.23;7.10;;;;;;;18.81;59.63;101573.53;6149598;23;20024;-70
2023/06/18 04:28:50;;;;;;;10.50;6.65;;;;;;;18.83;59.44;101574.34;6148330;23;20264;-70
2023/06/18 04:31:17;;;;;;;7.38;5.70;;;;;;;18.84;59.43;101571.66;6147790;23;20022;-70
2023/06/18 04:33:44;;;;;;;8.48;6.82;;;;;;;18.85;59.23;101569.88;6146988;23;20029;-70
2023/06/18 04:36:11;;;;;;;10.45;6.47;;;;;;;18.86;59.02;101574.22;6148050;23;20088;-70
2023/06/18 04:38:38;;;;;;;9.48;6.78;;;;;;;18.87;59.42;101575.97;6148642;23;20033;-71
2023/06/18 04:41:06;;;;;;;10.02;6.50;;;;;;;18.87;59.10;101565.38;6148692;23;20021;-70
2023/06/18 04:43:33;;;;;;;10.18;6.85;;;;;;;18.87;59.16;101565.38;6149421;23;20390;-71
2023/06/18 04:46:00;;;;;;;10.63;6.93;;;;;;;18.88;59.05;101572.38;6146935;23;20027;-70
2023/06/18 04:48:28;;;;;;;10.75;6.72;;;;;;;18.88;59.21;101561.78;6149380;23;20454;-70
2023/06/18 04:50:55;;;;;;;9.35;6.55;;;;;;;18.89;59.49;101563.50;6146514;23;20804;-71
2023/06/18 04:53:21;;;;;;;7.78;6.20;;;;;;;18.89;59.59;101571.44;6146339;23;20024;-70
2023/06/18 04:55:49;;;;;;;8.82;6.90;;;;;;;18.89;60.11;101563.50;6148213;23;20055;-70
2023/06/18 04:58:17;;;;;;;8.02;6.45;;;;;;;18.91;60.39;101566.09;6146602;23;20021;-71
2023/06/18 05:00:44;;;;;;;10.15;7.28;;;;;;;18.92;60.34;101567.81;6148254;23;20025;-71
2023/06/18 05:03:11;;;;;;;11.23;6.68;;;;;;;18.92;60.40;101568.69;6145986;23;20049;-70
2023/06/18 05:05:37;;;;;;;10.10;6.72;;;;;;;18.93;60.97;101570.41;6147977;23;20440;-71
2023/06/18 05:08:04;;;;;;;9.38;7.63;;;;;;;18.94;61.10;101580.06;6148838;23;20022;-70
2023/06/18 05:10:33;;;;;;;9.85;7.57;;;;;;;18.95;60.86;101581.78;6148226;23;20029;-70
2023/06/18 05:13:00;;;;;;;8.10;6.25;;;;;;;18.96;61.42;101572.09;6149658;23;20104;-70
2023/06/18 05:15:28;;;;;;;16.38;8.05;;;;;;;18.96;61.79;101583.53;6147404;23;20546;-70
2023/06/18 05:17:55;;;;;;;9.43;7.57;;;;;;;18.97;61.62;101568.50;6147689;23;20029;-70
2023/06/18 05:20:22;;;;;;;9.82;7.28;;;;;;;18.98;62.04;101571.09;6148011;23;20643;-70
2023/06/18 05:22:49;;;;;;;9.63;6.70;;;;;;;18.98;62.05;101576.41;6149117;23;20041;-70
2023/06/18 05:25:16;;;;;;;10.80;7.60;;;;;;;18.99;62.42;101572.81;6146657;23;20450;-70
2023/06/18 05:27:42;;;;;;;12.13;7.32;;;;;;;19.00;62.11;101571.03;6148466;23;20036;-70
2023/06/18 05:30:10;;;;;;;9.07;6.55;;;;;;;18.99;62.31;101572.81;6145940;23;20037;-71
2023/06/18 05:32:38;;;;;;;11.75;7.55;;;;;;;18.98;62.28;101576.41;6147392;23;20455;-70
2023/06/18 05:35:05;;;;;;;13.10;7.57;;;;;;;18.96;62.43;101570.28;6146417;23;20354;-71
2023/06/18 05:37:32;;;;;;;10.27;7.30;;;;;;;18.93;62.39;101573.06;6148601;23;20425;-70
2023/06/18 05:39:59;;;;;;;13.60;7.95;;;;;;;18.90;62.74;101570.53;6146167;23;20022;-70
2023/06/18 05:42:26;;;;;;;11.43;7.90;;;;;;;18.90;63.14;101583.78;6148626;23;20100;-70
2023/06/18 05:44:54;;;;;;;11.25;7.57;;;;;;;18.87;63.26;101573.31;6147914;23;20033;-70
2023/06/18 05:47:21;;;;;;;13.70;8.52;;;;;;;18.87;63.39;101575.97;6148721;23;20029;-70
2023/06/18 05:49:49;;;;;;;12.45;7.78;;;;;;;18.87;63.92;101576.81;6148475;23;20028;-70
2023/06/18 05:52:16;;;;;;;9.73;7.47;;;;;;;18.87;63.83;101573.31;6145514;23;20025;-70
2023/06/18 05:54:43;;;;;;;10.85;8.45;;;;;;;18.88;64.09;101573.25;6150572;23;20390;-70
2023/06/18 05:57:11;;;;;;;10.93;7.43;;;;;;;18.91;64.27;101574.06;6149557;23;20171;-70
2023/06/18 05:59:37;;;;;;;11.02;7.78;;;;;;;18.91;64.07;101580.19;6151103;23;20025;-70
2023/06/18 06:02:05;;;;;;;11.23;7.40;;;;;;;18.87;63.98;101581.25;6149651;23;20025;-71
2023/06/18 06:04:32;;;;;;;9.57;7.22;;;;;;;18.85;63.96;101588.41;6151249;23;20095;-71
2023/06/18 06:07:00;;;;;;;10.15;7.72;;;;;;;18.83;64.06;101591.09;6150194;23;20438;-71
2023/06/18 06:09:27;;;;;;;9.57;7.40;;;;;;;18.82;64.40;101589.38;6148701;23;20029;-70
2023/06/18 06:11:53;;;;;;;12.70;8.98;;;;;;;18.81;64.53;101582.38;6149613;23;20025;-70
2023/06/18 06:14:20;;;;;;;15.00;7.55;;;;;;;18.82;64.49;101584.06;6149579;23;20022;-70
2023/06/18 06:16:47;;;;;;;11.95;8.45;;;;;;;18.82;64.79;101583.22;6151303;23;20350;-71
2023/06/18 06:19:14;;;;;;;9.95;7.60;;;;;;;18.82;64.77;101583.22;6149114;23;20029;-70
2023/06/18 06:21:41;;;;;;;11.20;8.60;;;;;;;18.85;64.86;101580.44;6149994;23;20021;-70
2023/06/18 06:24:09;;;;;;;12.85;7.97;;;;;;;18.84;65.22;101578.72;6148556;23;20462;-70
2023/06/18 06:26:36;;;;;;;11.82;6.88;;;;;;;18.83;65.00;101569.06;6148605;23;20026;-70
2023/06/18 06:29:03;;;;;;;11.77;7.72;;;;;;;18.81;65.15;101560.31;6146232;23;20355;-70
2023/06/18 06:31:30;;;;;;;11.70;7.07;;;;;;;18.80;65.35;101564.75;6149988;23;20028;-70
2023/06/18 06:33:56;;;;;;;10.50;7.47;;;;;;;18.82;64.92;101567.34;6149731;23;20053;-70
2023/06/18 06:36:23;;;;;;;9.90;7.38;;;;;;;18.83;65.16;101561.13;6150097;23;20026;-70
2023/06/18 06:38:50;;;;;;;10.23;6.65;;;;;;;18.82;65.19;101556.75;6149411;23;20450;-70
2023/06/18 06:41:18;;;;;;;12.70;7.70;;;;;;;18.82;65.08;101562.03;6149237;23;20017;-70
2023/06/18 06:43:45;;;;;;;12.32;6.88;;;;;;;18.80;64.87;101558.59;6150939;23;20029;-70
2023/06/18 06:46:12;;;;;;;11.52;6.60;;;;;;;18.78;64.69;101544.56;6148378;23;20403;-71
2023/06/18 06:48:39;;;;;;;13.82;6.47;;;;;;;18.73;64.94;101547.38;6149801;23;20032;-70
2023/06/18 06:51:06;;;;;;;10.60;6.80;;;;;;;18.73;64.82;101551.81;6150489;23;20017;-70
2023/06/18 06:53:33;;;;;;;13.43;7.20;;;;;;;18.70;65.11;101550.13;6149284;23;20033;-71
2023/06/18 06:56:00;;;;;;;11.50;7.93;;;;;;;18.70;65.13;101551.91;6148217;23;20025;-70
2023/06/18 06:58:28;;;;;;;13.88;8.27;;;;;;;18.70;65.15;101549.25;6149047;23;20026;-72
2023/06/18 07:00:55;;;;;;;9.27;7.20;;;;;;;18.68;65.05;101554.63;6146080;23;20045;-71
2023/06/18 07:03:21;;;;;;;13.05;7.10;;;;;;;18.67;65.38;101555.56;6149384;23;20036;-72
2023/06/18 07:05:48;;;;;;;8.73;7.32;;;;;;;18.68;65.01;101548.47;6150054;23;20390;-72
2023/06/18 07:08:15;;;;;;;7.82;6.43;;;;;;;18.67;64.88;101542.31;6146685;23;20048;-70
2023/06/18 07:10:42;;;;;;;12.32;7.43;;;;;;;18.68;65.03;101540.53;6148013;23;20037;-70
2023/06/18 07:13:09;;;;;;;10.50;7.43;;;;;;;18.66;64.92;101548.53;6148953;23;20022;-71
2023/06/18 07:15:37;;;;;;;10.25;7.50;;;;;;;18.66;65.01;101535.28;6149231;23;20045;-71
2023/06/18 07:18:04;;;;;;;9.45;7.00;;;;;;;18.66;65.15;101527.34;6148302;23;20022;-70
2023/06/18 07:20:31;;;;;;;9.95;6.75;;;;;;;18.64;65.39;101527.44;6149731;23;20036;-70
2023/06/18 07:22:57;;;;;;;9.70;6.30;;;;;;;18.63;65.12;101515.09;6145462;23;20022;-71
2023/06/18 07:25:24;;;;;;;11.20;7.25;;;;;;;18.64;65.41;101510.66;6148305;23;20025;-70
2023/06/18 07:27:51;;;;;;;9.40;6.38;;;;;;;18.63;65.73;101520.41;6149679;23;20124;-71
2023/06/18 07:30:18;;;;;;;8.82;6.47;;;;;;;18.64;65.52;101514.19;6147561;23;20025;-70
2023/06/18 07:32:46;;;;;;;8.27;6.47;;;;;;;18.66;65.91;101519.41;6146532;23;20028;-69
2023/06/18 07:35:13;;;;;;;12.20;7.07;;;;;;;18.66;66.25;101512.31;6148029;23;20022;-69
2023/06/18 07:37:40;;;;;;;12.77;6.88;;;;;;;18.72;66.56;101516.50;6146696;23;20022;-69
2023/06/18 07:40:08;;;;;;;10.23;6.32;;;;;;;18.75;66.33;101505.84;6148137;23;20398;-70
2023/06/18 07:42:35;;;;;;;8.32;5.53;;;;;;;18.81;65.64;101499.44;6147676;23;20028;-69
2023/06/18 07:45:02;;;;;;;9.85;6.28;;;;;;;18.83;65.42;101495.78;6148395;23;20036;-69
2023/06/18 07:47:29;;;;;;;8.10;6.45;;;;;;;18.88;65.70;101498.25;6149312;23;20043;-69
2023/06/18 07:49:57;;;;;;;10.80;6.07;;;;;;;18.94;65.88;101502.44;6145841;23;20026;-69
2023/06/18 07:52:24;;;;;;;10.48;6.15;;;;;;;18.99;65.24;101505.75;6149282;23;20018;-70
2023/06/18 07:54:51;;;;;;;8.05;5.93;;;;;;;19.03;65.03;101502.91;6148553;23;20104;-69
2023/06/18 07:57:18;;;;;;;13.13;6.15;;;;;;;19.08;65.11;101510.66;6148664;23;20017;-69
2023/06/18 07:59:45;;;;;;;10.45;6.32;;;;;;;19.10;64.46;101514.97;6149475;23;20029;-69
2023/06/18 08:02:12;;;;;;;9.88;6.30;;;;;;;19.11;64.75;101510.53;6148394;23;20052;-70
2023/06/18 08:04:39;;;;;;;12.63;7.15;;;;;;;19.19;64.79;101510.22;6148968;23;20561;-69
2023/06/18 08:07:07;;;;;;;11.73;6.75;;;;;;;19.25;65.37;101517.91;6149056;23;20028;-69
2023/06/18 08:09:34;;;;;;;11.73;5.82;;;;;;;19.30;64.72;101526.50;6147848;23;20025;-69
2023/06/18 08:12:01;;;;;;;8.98;6.78;;;;;;;19.34;64.46;101528.09;6148218;23;20022;-69
2023/06/18 08:14:28;;;;;;;8.05;6.15;;;;;;;19.35;64.08;101513.91;6148229;23;20104;-69
2023/06/18 08:16:55;;;;;;;7.38;5.72;;;;;;;19.44;64.18;101524.13;6148790;23;20095;-69
2023/06/18 08:19:22;;;;;;;11.52;5.97;;;;;;;19.46;64.17;101527.53;6147420;23;20018;-70
2023/06/18 08:21:49;;;;;;;8.38;5.65;;;;;;;19.49;63.90;101532.72;6149886;23;20025;-71
2023/06/18 08:24:17;;;;;;;7.57;5.38;;;;;;;19.53;63.76;101542.25;6148127;23;20033;-70
2023/06/18 08:26:44;;;;;;;9.50;5.82;;;;;;;19.61;63.89;101538.41;6148985;23;20469;-69
2023/06/18 08:29:11;;;;;;;8.02;5.65;;;;;;;19.65;63.98;101545.31;6146602;23;20036;-69
2023/06/18 08:31:40;;;;;;;8.93;5.95;;;;;;;19.68;63.64;101540.75;6150361;23;20021;-70
2023/06/18 08:34:07;;;;;;;8.90;6.20;;;;;;;19.70;63.69;101559.25;6147807;23;20354;-70
2023/06/18 08:36:34;;;;;;;7.95;5.97;;;;;;;19.74;63.06;101574.09;6147666;23;20725;-71
2023/06/18 08:39:01;;;;;;;8.35;5.30;;;;;;;19.77;63.21;101573.94;6137840;23;20022;-71
2023/06/18 08:41:30;;;;;;;11.57;6.72;;;;;;;19.79;63.04;101582.69;6143626;23;20017;-72
2023/06/18 08:43:59;;;;;;;7.85;6.28;;;;;;;19.83;63.29;101586.06;6144925;23;20339;-71
2023/06/18 08:46:28;;;;;;;9.75;5.63;;;;;;;19.85;62.70;101581.56;6145662;23;20022;-72
2023/06/18 08:48:59;;;;;;;8.77;5.32;;;;;;;19.87;62.67;101588.53;6141539;23;20022;-72
2023/06/18 08:51:26;;;;;;;7.25;5.93;;;;;;;19.88;62.35;101592.03;6144759;23;20064;-72
2023/06/18 08:54:02;;;;;;;6.22;5.22;;;;;;;19.90;62.50;101596.34;6142815;23;20029;-74
2023/06/18 08:56:31;;;;;;;11.75;6.63;;;;;;;19.92;62.24;101591.84;6142367;23;20021;-72
2023/06/18 08:58:58;;;;;;;6.43;5.53;;;;;;;19.94;62.54;101587.31;6143324;23;20021;-72
2023/06/18 09:01:26;;;;;;;6.55;5.70;;;;;;;19.97;62.39;101587.16;6147539;23;20021;-72
2023/06/18 09:03:55;;;;;;;7.43;5.43;;;;;;;19.99;62.35;101595.06;6143136;23;20474;-72
2023/06/18 09:06:24;;;;;;;10.30;5.55;;;;;;;20.02;62.29;101594.94;6146227;23;20021;-72
2023/06/18 09:08:50;;;;;;;15.68;7.63;;;;;;;20.05;62.65;101599.25;6144910;23;20021;-72
2023/06/18 09:11:17;;;;;;;9.15;5.75;;;;;;;20.05;62.61;101591.28;6144166;23;20021;-72
2023/06/18 09:13:46;;;;;;;6.15;5.38;;;;;;;20.07;62.18;101594.75;6146470;23;20072;-72
2023/06/18 09:16:13;;;;;;;8.48;5.78;;;;;;;20.09;62.11;101592.84;6145725;23;20033;-72
2023/06/18 09:18:40;;;;;;;10.18;5.78;;;;;;;20.07;61.98;101586.78;6144137;23;20603;-71
2023/06/18 09:21:07;;;;;;;8.50;5.63;;;;;;;20.06;61.84;101593.84;6146380;23;20021;-72
2023/06/18 09:23:35;;;;;;;7.65;5.85;;;;;;;20.07;62.04;101600.03;6144520;23;20025;-71
2023/06/18 09:26:03;;;;;;;7.88;6.18;;;;;;;20.07;62.39;101598.25;6142257;23;20029;-72
2023/06/18 09:28:30;;;;;;;9.77;5.45;;;;;;;20.06;62.17;101601.81;6143684;23;20025;-72
2023/06/18 09:31:00;;;;;;;11.50;6.78;;;;;;;20.11;62.48;101614.88;6139882;23;20088;-71
2023/06/18 09:33:29;;;;;;;9.38;6.30;;;;;;;20.14;62.20;101606.78;6144398;23;20029;-72
2023/06/18 09:36:04;;;;;;;9.35;6.32;;;;;;;20.15;62.39;101596.09;6144998;23;20471;-72
2023/06/18 09:38:40;;;;;;;8.57;6.05;;;;;;;20.20;62.40;101609.16;6145009;23;20018;-72
2023/06/18 09:41:13;;;;;;;9.60;6.60;;;;;;;20.21;62.27;101601.13;6145661;23;20032;-72
2023/06/18 09:43:41;;;;;;;12.30;6.22;;;;;;;20.23;62.34;101598.38;6144040;23;20033;-72
2023/06/18 09:46:09;;;;;;;9.02;7.07;;;;;;;20.26;61.90;101592.09;6146607;23;20021;-72
2023/06/18 09:48:37;;;;;;;12.23;6.68;;;;;;;20.28;61.71;101595.53;6143637;23;20022;-72
2023/06/18 09:51:04;;;;;;;10.30;5.95;;;;;;;20.26;61.52;101606.22;6144694;23;20029;-72
2023/06/18 09:53:31;;;;;;;9.85;6.60;;;;;;;20.25;61.47;101593.88;6141496;23;20029;-72
2023/06/18 09:56:09;;;;;;;11.27;7.32;;;;;;;20.26;61.71;101582.31;6143271;23;20025;-73
2023/06/18 09:58:44;;;;;;;15.40;6.82;;;;;;;20.29;61.47;101582.22;6142778;23;20053;-71
2023/06/18 10:01:13;;;;;;;13.45;6.18;;;;;;;20.33;61.28;101589.09;6146285;23;20021;-72
2023/06/18 10:03:40;;;;;;;10.88;5.95;;;;;;;20.33;61.19;101593.53;6145514;23;20377;-72
2023/06/18 10:06:17;;;;;;;11.82;6.75;;;;;;;20.30;60.85;101589.22;6145731;23;20402;-72
2023/06/18 10:08:47;;;;;;;10.73;6.03;;;;;;;20.30;60.67;101597.19;6143897;23;20026;-72
2023/06/18 10:11:16;;;;;;;12.25;7.47;;;;;;;20.26;60.58;101586.78;6143049;23;20028;-72
2023/06/18 10:13:48;;;;;;;13.02;6.60;;;;;;;20.31;60.99;101596.25;6144647;23;20028;-73
2023/06/18 10:16:18;;;;;;;12.35;7.63;;;;;;;20.33;60.95;101604.16;6143488;23;20384;-70
2023/06/18 10:18:55;;;;;;;10.88;6.47;;;;;;;20.33;60.67;101594.41;6146114;23;20052;-73
2023/06/18 10:21:24;;;;;;;12.32;7.20;;;;;;;20.34;60.63;101605.88;6145315;23;20088;-72
2023/06/18 10:23:54;;;;;;;14.40;6.40;;;;;;;20.34;60.60;101598.75;6144636;23;20026;-73
2023/06/18 10:26:23;;;;;;;11.00;7.07;;;;;;;20.35;60.71;101602.25;6142155;23;20339;-72
2023/06/18 10:28:51;;;;;;;15.27;6.82;;;;;;;20.35;60.58;101603.16;6144959;23;20026;-72
2023/06/18 10:31:20;;;;;;;11.10;6.50;;;;;;;20.35;60.86;101600.50;6130937;23;20095;-72
2023/06/18 10:33:48;;;;;;;12.27;6.53;;;;;;;20.33;60.74;101599.69;6145840;23;20026;-72
2023/06/18 10:36:16;;;;;;;9.52;6.65;;;;;;;20.38;61.04;101602.16;6147366;23;20029;-72
2023/06/18 10:38:44;;;;;;;9.27;7.15;;;;;;;20.42;61.15;101598.41;6148016;23;20042;-72
2023/06/18 10:41:12;;;;;;;9.40;6.38;;;;;;;20.42;61.03;101603.72;6148807;23;20484;-72
2023/06/18 10:43:40;;;;;;;9.77;6.88;;;;;;;20.44;60.98;101607.16;6147110;23;20025;-72
2023/06/18 10:46:12;;;;;;;12.77;7.25;;;;;;;20.44;61.32;101607.16;6150060;23;20026;-72
2023/06/18 10:48:41;;;;;;;10.63;6.40;;;;;;;20.42;61.35;101609.88;6146492;23;20072;-72
2023/06/18 10:51:13;;;;;;;12.48;7.25;;;;;;;20.43;61.89;101603.66;6149441;23;20352;-71
2023/06/18 10:53:40;;;;;;;11.27;7.10;;;;;;;20.40;61.74;101606.44;6146440;23;20064;-72
2023/06/18 10:56:06;;;;;;;12.40;7.10;;;;;;;20.45;61.75;101608.88;6150481;23;20017;-72
2023/06/18 10:58:34;;;;;;;14.05;7.75;;;;;;;20.44;61.66;101602.72;6147310;23;20017;-71
2023/06/18 11:01:01;;;;;;;14.77;6.20;;;;;;;20.19;61.51;101562.34;6149485;23;20025;-71
2023/06/18 11:03:34;;;;;;;10.80;6.25;;;;;;;20.45;61.69;101609.75;6147025;23;20022;-72
2023/06/18 11:06:04;;;;;;;16.95;8.48;;;;;;;20.44;62.06;101608.03;6150753;23;20036;-71
2023/06/18 11:08:32;;;;;;;14.02;7.18;;;;;;;20.46;61.92;101605.28;6146523;23;20025;-71
2023/06/18 11:11:04;;;;;;;15.55;7.97;;;;;;;20.45;62.11;101598.25;6148423;23;20033;-72
2023/06/18 11:13:33;;;;;;;14.10;7.43;;;;;;;20.43;62.45;101601.00;6147861;23;20017;-71
2023/06/18 11:16:02;;;;;;;14.85;7.03;;;;;;;20.44;62.35;101602.72;6147630;23;20017;-71
2023/06/18 11:18:30;;;;;;;12.80;7.97;;;;;;;20.43;62.60;101595.69;6148043;23;20467;-70
2023/06/18 11:20:59;;;;;;;15.38;7.93;;;;;;;20.42;63.02;101587.78;6148877;23;20087;-71
2023/06/18 11:23:28;;;;;;;12.07;8.40;;;;;;;20.43;62.89;101582.44;6147833;23;20032;-71
2023/06/18 11:25:55;;;;;;;9.88;6.85;;;;;;;20.49;63.02;101588.34;6148747;23;20029;-70